Time;durP1;ratioP1;P1;durP2;ratioP2;P2;SDS_P1;SDS_P2;PMS_P1;PMS_P2;Temp;Humidity;BMP_temperature;BMP_pressure;BME280_temperature;BME280_humidity;BME280_pressure;Samples;Min_cycle;Max_cycle;Signal;HPM_P1;HPM_P2
2023/07/19 00:01:29;;;;;;;10.60;9.48;;;;;;;22.71;67.55;93063.31;5051970;28;20212;-71
2023/07/19 00:03:54;;;;;;;9.63;8.93;;;;;;;22.81;67.77;93078.03;5048911;28;20223;-71
2023/07/19 00:06:20;;;;;;;9.88;9.13;;;;;;;22.82;67.63;93075.00;5048784;28;20274;-71
2023/07/19 00:08:45;;;;;;;10.25;9.45;;;;;;;22.71;67.43;93058.00;5049996;28;20181;-70
2023/07/19 00:11:11;;;;;;;10.77;9.70;;;;;;;22.77;67.87;93067.28;5048978;28;20237;-70
2023/07/19 00:13:36;;;;;;;10.82;10.00;;;;;;;22.78;67.96;93065.41;5049558;28;20192;-71
2023/07/19 00:16:01;;;;;;;10.13;9.30;;;;;;;22.74;67.43;93059.97;5048968;28;20233;-71
2023/07/19 00:18:27;;;;;;;10.65;9.70;;;;;;;22.75;66.97;93064.19;5049507;28;20188;-71
2023/07/19 00:20:52;;;;;;;10.45;9.55;;;;;;;22.60;67.51;93035.66;5048452;28;20217;-71
2023/07/19 00:23:17;;;;;;;10.55;9.85;;;;;;;22.71;68.34;93057.25;5049119;28;20189;-71
2023/07/19 00:25:45;;;;;;;10.88;9.98;;;;;;;22.58;69.09;93051.22;5081159;28;20229;-70
2023/07/19 00:28:10;;;;;;;10.52;9.65;;;;;;;22.66;68.91;93068.13;5049671;28;20192;-71
2023/07/19 00:30:36;;;;;;;10.18;9.27;;;;;;;22.57;68.63;93052.31;5047439;28;20246;-71
2023/07/19 00:33:02;;;;;;;10.68;9.85;;;;;;;22.62;68.42;93069.91;5049496;28;20203;-71
2023/07/19 00:35:28;;;;;;;10.35;9.60;;;;;;;22.65;69.09;93063.91;5053833;28;20236;-71
2023/07/19 00:37:53;;;;;;;10.48;9.63;;;;;;;22.54;69.63;93060.22;5049502;28;20204;-70
2023/07/19 00:40:19;;;;;;;9.73;8.93;;;;;;;22.47;69.58;93067.97;5048529;28;20281;-71
2023/07/19 00:42:45;;;;;;;9.85;9.15;;;;;;;22.51;68.98;93064.31;5051115;28;20196;-71
2023/07/19 00:45:10;;;;;;;11.25;10.10;;;;;;;22.53;69.97;93063.97;5051151;28;20301;-71
2023/07/19 00:47:37;;;;;;;10.13;9.43;;;;;;;22.48;70.59;93070.28;5054038;28;20238;-70
2023/07/19 00:50:03;;;;;;;10.60;9.60;;;;;;;22.43;71.01;93061.81;5051911;28;20231;-71
2023/07/19 00:52:29;;;;;;;10.93;9.82;;;;;;;22.36;69.27;93065.03;5052379;28;20275;-71
2023/07/19 00:54:55;;;;;;;10.30;9.07;;;;;;;22.31;68.75;93053.84;5051907;28;20227;-71
2023/07/19 00:57:20;;;;;;;10.07;9.43;;;;;;;22.10;68.57;93054.06;5051516;28;20223;-71
2023/07/19 00:59:46;;;;;;;9.95;9.15;;;;;;;22.28;68.39;93039.34;5051393;28;20224;-71
2023/07/19 01:02:12;;;;;;;10.10;9.35;;;;;;;22.39;67.93;93056.38;5053506;28;20196;-71
2023/07/19 01:04:38;;;;;;;11.27;10.27;;;;;;;22.32;68.17;93058.84;5052376;28;20255;-71
2023/07/19 01:07:04;;;;;;;10.73;9.50;;;;;;;22.29;68.26;93053.44;5052329;28;20221;-71
2023/07/19 01:09:30;;;;;;;10.30;9.50;;;;;;;22.24;68.92;93060.53;5051908;28;20718;-71
2023/07/19 01:11:56;;;;;;;11.55;10.57;;;;;;;22.27;69.34;93058.31;5051062;28;20320;-71
2023/07/19 01:14:21;;;;;;;10.00;9.30;;;;;;;22.12;70.33;93055.25;5051583;28;20188;-71
2023/07/19 01:16:46;;;;;;;10.23;9.48;;;;;;;22.03;69.54;93037.91;5056706;28;20225;-71
2023/07/19 01:19:15;;;;;;;11.25;10.07;;;;;;;22.10;69.01;93054.06;5052410;28;20192;-70
2023/07/19 01:21:40;;;;;;;11.30;10.30;;;;;;;22.12;68.24;93038.53;5051232;28;20240;-71
2023/07/19 01:24:06;;;;;;;9.90;9.30;;;;;;;22.14;68.91;93049.59;5051081;28;20204;-71
2023/07/19 01:26:31;;;;;;;10.63;9.85;;;;;;;22.05;68.36;93022.38;5051390;28;20224;-70
2023/07/19 01:28:57;;;;;;;10.18;9.48;;;;;;;22.14;68.34;93041.63;5051696;28;20187;-71
2023/07/19 01:31:23;;;;;;;10.48;9.68;;;;;;;22.12;67.99;93054.47;5054187;28;20227;-71
2023/07/19 01:33:48;;;;;;;10.13;9.43;;;;;;;22.06;68.05;93037.22;5055527;28;20192;-71
2023/07/19 01:36:13;;;;;;;10.80;9.80;;;;;;;22.21;67.60;93047.91;5050352;28;20235;-71
2023/07/19 01:38:41;;;;;;;11.45;10.55;;;;;;;22.09;68.94;93041.88;5050971;28;20247;-70
2023/07/19 01:41:06;;;;;;;11.10;10.20;;;;;;;22.09;68.71;93044.53;5051304;28;20230;-71
2023/07/19 01:43:31;;;;;;;9.80;9.10;;;;;;;22.04;69.11;93050.06;5050140;28;20182;-71
2023/07/19 01:45:58;;;;;;;9.00;8.40;;;;;;;21.92;69.85;93044.81;5050973;28;20219;-71
2023/07/19 01:48:24;;;;;;;10.93;10.10;;;;;;;21.92;70.22;93047.47;5052274;28;20196;-71
2023/07/19 01:50:49;;;;;;;10.95;10.25;;;;;;;21.80;69.88;93037.66;5050924;28;20229;-71
2023/07/19 01:53:15;;;;;;;10.82;10.13;;;;;;;21.94;69.38;93048.69;5050986;28;20254;-71
2023/07/19 01:55:41;;;;;;;10.85;9.98;;;;;;;21.89;69.73;93045.47;5050632;28;20218;-71
2023/07/19 01:58:10;;;;;;;11.80;10.80;;;;;;;21.93;69.90;93043.72;5051226;28;20211;-71
2023/07/19 02:00:36;;;;;;;10.77;9.15;;;;;;;21.77;69.34;93043.66;5051060;28;20231;-71
2023/07/19 02:03:02;;;;;;;10.65;9.75;;;;;;;21.91;69.16;93057.34;5060891;28;20210;-71
2023/07/19 02:05:27;;;;;;;11.43;9.85;;;;;;;21.75;69.68;93050.38;5044867;28;20231;-71
2023/07/19 02:07:53;;;;;;;10.48;9.57;;;;;;;21.79;68.27;93036.09;5031262;28;20887;-71
2023/07/19 02:10:18;;;;;;;10.40;9.00;;;;;;;21.79;68.83;93035.34;5038839;28;20229;-71
2023/07/19 02:12:44;;;;;;;10.77;9.90;;;;;;;21.80;68.64;93037.66;5033399;28;20261;-70
2023/07/19 02:15:10;;;;;;;11.27;10.40;;;;;;;21.63;69.53;93031.78;5050253;28;20222;-71
2023/07/19 02:17:36;;;;;;;11.32;10.32;;;;;;;21.76;69.46;93030.69;5050619;28;20336;-70
2023/07/19 02:20:01;;;;;;;10.68;9.85;;;;;;;21.78;70.45;93020.47;5053799;28;20255;-71
2023/07/19 02:22:27;;;;;;;10.65;9.75;;;;;;;21.80;70.15;93018.25;5048148;28;20188;-71
2023/07/19 02:24:52;;;;;;;11.23;10.05;;;;;;;21.72;69.33;93000.53;5050318;28;20239;-70
2023/07/19 02:27:17;;;;;;;11.32;10.43;;;;;;;21.76;69.60;93012.84;5050399;28;20327;-71
2023/07/19 02:29:43;;;;;;;10.75;9.95;;;;;;;21.67;69.70;93019.38;5050084;28;20258;-70
2023/07/19 02:32:08;;;;;;;11.32;10.35;;;;;;;21.63;69.01;93016.63;5049981;28;20183;-71
2023/07/19 02:34:34;;;;;;;11.65;10.48;;;;;;;21.73;69.44;93013.47;5050115;28;20193;-70
2023/07/19 02:36:59;;;;;;;11.02;10.07;;;;;;;21.66;68.69;93009.84;5050148;28;20179;-71
2023/07/19 02:39:27;;;;;;;10.75;9.65;;;;;;;21.78;68.59;93004.53;5050765;28;20258;-71
2023/07/19 02:41:53;;;;;;;11.18;9.93;;;;;;;21.79;69.37;93011.41;5050622;28;20195;-71
2023/07/19 02:44:18;;;;;;;10.52;9.70;;;;;;;21.75;68.99;92997.22;5082808;28;20188;-71
2023/07/19 02:46:44;;;;;;;12.00;10.93;;;;;;;21.70;69.93;93005.41;5049106;28;20219;-71
2023/07/19 02:49:11;;;;;;;10.60;9.73;;;;;;;21.72;69.94;93014.59;5054831;28;20194;-71
2023/07/19 02:51:36;;;;;;;11.27;10.18;;;;;;;21.50;70.88;92996.50;5051555;28;20221;-70
2023/07/19 02:54:02;;;;;;;10.40;9.50;;;;;;;21.53;70.56;92992.38;5050435;28;20213;-71
2023/07/19 02:56:27;;;;;;;11.07;9.68;;;;;;;21.66;70.23;92999.22;5031994;28;20220;-71
2023/07/19 02:58:52;;;;;;;10.77;9.85;;;;;;;21.68;70.93;92994.34;5030473;28;20210;-71
2023/07/19 03:01:18;;;;;;;11.85;10.95;;;;;;;21.69;70.29;93002.00;5045352;28;20276;-71
2023/07/19 03:03:43;;;;;;;11.02;10.13;;;;;;;21.74;69.95;92998.31;5055405;28;20200;-71
2023/07/19 03:06:12;;;;;;;11.05;10.15;;;;;;;21.68;69.78;92997.00;5052040;28;20243;-71
2023/07/19 03:08:37;;;;;;;10.98;10.05;;;;;;;21.54;69.90;92989.38;5050253;28;20191;-71
2023/07/19 03:11:05;;;;;;;10.48;9.57;;;;;;;21.61;69.38;93004.75;5049447;28;20235;-71
2023/07/19 03:13:30;;;;;;;10.52;9.82;;;;;;;21.71;69.04;93005.06;5049823;28;20195;-71
2023/07/19 03:15:56;;;;;;;12.70;9.38;;;;;;;21.84;69.89;92997.84;5048563;28;20278;-71
2023/07/19 03:18:21;;;;;;;10.85;9.95;;;;;;;21.87;70.54;93003.28;5056988;28;20197;-71
2023/07/19 03:20:46;;;;;;;11.85;10.95;;;;;;;21.82;71.15;93000.84;5051686;28;20274;-71
2023/07/19 03:23:12;;;;;;;11.00;10.15;;;;;;;21.87;70.52;93002.50;5049691;28;20188;-71
2023/07/19 03:25:37;;;;;;;10.60;9.57;;;;;;;21.79;71.76;93000.78;5048993;28;20225;-71
2023/07/19 03:28:03;;;;;;;14.20;9.77;;;;;;;21.69;72.67;92995.91;5049796;28;20222;-71
2023/07/19 03:30:28;;;;;;;11.32;10.32;;;;;;;21.88;71.69;92998.75;5048982;28;20259;-71
2023/07/19 03:32:53;;;;;;;10.48;9.48;;;;;;;22.05;71.26;93003.78;5056693;28;20190;-71
2023/07/19 03:35:19;;;;;;;10.10;9.40;;;;;;;22.00;71.45;92988.06;5051822;28;20240;-71
2023/07/19 03:37:45;;;;;;;10.68;9.68;;;;;;;21.89;71.73;92979.00;5049948;28;20236;-71
2023/07/19 03:40:14;;;;;;;11.10;10.13;;;;;;;22.12;71.43;92990.66;5049452;28;20220;-71
2023/07/19 03:42:40;;;;;;;33.38;11.75;;;;;;;22.04;72.80;92981.72;5049801;28;20185;-71
2023/07/19 03:45:06;;;;;;;36.63;13.50;;;;;;;21.93;74.33;92985.22;5049093;28;20224;-71
2023/07/19 03:47:32;;;;;;;11.23;10.00;;;;;;;22.00;72.84;92975.53;5049618;28;20220;-71
2023/07/19 03:49:57;;;;;;;10.55;9.85;;;;;;;22.17;71.26;92974.44;5048515;28;20240;-71
2023/07/19 03:52:23;;;;;;;10.75;9.98;;;;;;;22.14;73.57;92980.44;5049592;28;20192;-71
2023/07/19 03:54:50;;;;;;;11.32;10.18;;;;;;;22.21;74.01;92970.75;5048631;28;20220;-71
2023/07/19 03:57:16;;;;;;;10.15;9.35;;;;;;;22.27;73.71;92969.41;5049647;28;20196;-71
2023/07/19 03:59:41;;;;;;;10.75;9.88;;;;;;;22.27;73.73;92962.53;5048797;28;20266;-71
2023/07/19 04:02:07;;;;;;;10.25;9.40;;;;;;;22.19;74.47;92948.28;5048758;28;20661;-71
2023/07/19 04:04:32;;;;;;;10.82;9.90;;;;;;;22.53;73.55;92958.31;5080187;28;20234;-71
2023/07/19 04:06:57;;;;;;;10.95;9.95;;;;;;;22.56;75.06;92965.59;5048381;28;20309;-71
2023/07/19 04:09:23;;;;;;;9.85;9.20;;;;;;;22.81;72.45;92960.88;5049268;28;20185;-71
2023/07/19 04:11:48;;;;;;;11.43;9.95;;;;;;;22.75;75.94;92968.34;5049293;28;20195;-71
2023/07/19 04:14:13;;;;;;;10.90;9.50;;;;;;;22.78;74.77;92978.31;5058800;28;20264;-71
2023/07/19 04:16:41;;;;;;;10.98;9.90;;;;;;;22.79;74.10;92979.06;5050869;28;20233;-71
2023/07/19 04:19:06;;;;;;;13.55;9.73;;;;;;;22.79;74.76;92969.19;5049666;28;20192;-71
2023/07/19 04:21:31;;;;;;;10.80;9.32;;;;;;;22.87;74.19;92970.91;5052564;28;20249;-71
2023/07/19 04:23:57;;;;;;;11.25;10.35;;;;;;;23.02;74.75;92966.69;5052866;28;20189;-71
2023/07/19 04:26:23;;;;;;;10.20;9.50;;;;;;;23.16;73.95;92962.44;5053333;28;20232;-70
2023/07/19 04:28:48;;;;;;;11.10;10.18;;;;;;;23.32;74.08;92965.09;5052688;28;20193;-71
2023/07/19 04:31:13;;;;;;;11.77;9.90;;;;;;;23.58;73.02;92968.72;5052542;28;20225;-71
2023/07/19 04:33:39;;;;;;;11.27;10.25;;;;;;;23.77;71.70;92959.19;5052750;28;20196;-71
2023/07/19 04:36:12;;;;;;;11.27;10.25;;;;;;;23.94;71.30;92966.78;5052150;28;20241;-71
2023/07/19 04:38:38;;;;;;;11.98;10.80;;;;;;;23.79;72.55;92952.38;5053014;28;20186;-70
2023/07/19 04:41:03;;;;;;;10.63;9.25;;;;;;;23.97;71.68;92968.78;5052069;28;20246;-71
2023/07/19 04:43:29;;;;;;;13.68;11.30;;;;;;;24.15;71.04;92967.19;5052331;28;20186;-71
2023/07/19 04:45:54;;;;;;;9.88;8.95;;;;;;;24.35;69.99;92966.03;5051996;28;20212;-71
2023/07/19 04:48:20;;;;;;;10.77;9.88;;;;;;;24.44;69.51;92971.91;5052290;28;20190;-71
2023/07/19 04:50:45;;;;;;;12.10;9.65;;;;;;;24.70;68.44;92972.03;5052031;28;20230;-71
2023/07/19 04:53:10;;;;;;;11.63;10.63;;;;;;;24.74;68.31;92970.19;5052200;28;20186;-71
2023/07/19 04:55:36;;;;;;;11.48;10.38;;;;;;;24.93;66.80;92967.44;5049485;28;20239;-72
2023/07/19 04:58:02;;;;;;;12.27;10.45;;;;;;;24.93;69.19;92973.56;5035958;28;20187;-71
2023/07/19 05:00:28;;;;;;;12.05;10.90;;;;;;;25.08;68.63;92972.66;5041431;28;20234;-71
2023/07/19 05:02:53;;;;;;;12.57;10.80;;;;;;;25.44;65.93;92957.13;5052184;28;20177;-71
2023/07/19 05:05:19;;;;;;;11.35;10.20;;;;;;;25.41;66.45;92982.72;5052020;28;20237;-70
2023/07/19 05:07:44;;;;;;;14.60;11.90;;;;;;;25.56;63.31;92975.66;5050886;28;20212;-71
2023/07/19 05:10:10;;;;;;;12.05;10.77;;;;;;;25.63;63.31;92984.53;5052729;28;20262;-72
2023/07/19 05:12:35;;;;;;;13.38;10.80;;;;;;;25.57;63.71;92977.97;5054487;28;20188;-71
2023/07/19 05:15:01;;;;;;;13.98;11.48;;;;;;;25.35;64.62;92989.50;5050443;28;20220;-71
2023/07/19 05:17:26;;;;;;;21.45;11.05;;;;;;;25.09;64.38;92990.22;5051924;28;20205;-71
2023/07/19 05:19:52;;;;;;;16.00;11.43;;;;;;;25.03;65.50;92985.53;5051287;28;20233;-71
2023/07/19 05:22:17;;;;;;;16.88;12.25;;;;;;;25.03;64.17;92972.16;5051530;28;20189;-71
2023/07/19 05:24:43;;;;;;;16.42;11.18;;;;;;;25.29;62.92;92974.88;5054249;28;20240;-71
2023/07/19 05:27:08;;;;;;;17.15;11.52;;;;;;;25.31;62.53;92977.94;5054188;28;20214;-71
2023/07/19 05:29:34;;;;;;;20.33;11.30;;;;;;;25.15;63.44;92958.63;5050827;28;20194;-71
2023/07/19 05:31:59;;;;;;;15.70;10.98;;;;;;;25.20;63.23;92968.97;5051645;28;20202;-71
2023/07/19 05:34:25;;;;;;;13.77;11.20;;;;;;;25.55;62.61;92971.44;5040764;28;20174;-71
2023/07/19 05:36:50;;;;;;;16.40;10.85;;;;;;;25.83;61.72;92977.13;5050683;28;21105;-71
2023/07/19 05:39:16;;;;;;;14.20;10.90;;;;;;;26.29;59.97;92971.22;5052099;28;20210;-71
2023/07/19 05:41:41;;;;;;;18.55;11.70;;;;;;;26.32;60.75;92973.16;5054317;28;20229;-71
2023/07/19 05:44:07;;;;;;;14.07;11.00;;;;;;;26.52;58.62;92966.47;5051490;28;20442;-71
2023/07/19 05:46:36;;;;;;;12.10;10.85;;;;;;;26.37;57.30;92967.47;5050906;28;20230;-71
2023/07/19 05:49:02;;;;;;;11.60;10.68;;;;;;;26.19;58.52;92976.47;5051656;28;20190;-71
2023/07/19 05:51:27;;;;;;;12.82;11.15;;;;;;;25.68;61.04;92962.84;5050831;28;20251;-71
2023/07/19 05:53:54;;;;;;;12.98;9.82;;;;;;;27.83;55.25;92962.88;5051261;28;20754;-71
2023/07/19 05:56:20;;;;;;;11.85;10.73;;;;;;;31.84;43.39;92976.16;5048085;28;20211;-72
2023/07/19 05:58:45;;;;;;;11.55;10.35;;;;;;;34.15;38.87;92988.28;5051170;28;20200;-71
2023/07/19 06:01:14;;;;;;;12.82;10.77;;;;;;;36.99;32.15;92996.88;5050769;28;20225;-71
2023/07/19 06:03:40;;;;;;;13.63;10.10;;;;;;;36.37;33.53;93003.72;5051610;28;20175;-71
2023/07/19 06:06:05;;;;;;;11.27;9.73;;;;;;;39.14;29.25;93004.00;5050208;28;20289;-71
2023/07/19 06:08:32;;;;;;;11.07;9.80;;;;;;;39.04;29.18;93005.19;5051383;28;20182;-71
2023/07/19 06:10:58;;;;;;;11.25;9.30;;;;;;;39.39;28.90;93006.53;5050088;28;20225;-72
2023/07/19 06:13:24;;;;;;;10.70;9.70;;;;;;;40.69;27.57;93018.31;5054562;28;20217;-71
2023/07/19 06:15:49;;;;;;;10.60;9.25;;;;;;;40.58;26.75;92995.34;5054014;28;20225;-71
2023/07/19 06:18:15;;;;;;;10.05;9.02;;;;;;;39.79;27.63;93016.25;5051050;28;20189;-72
2023/07/19 06:20:40;;;;;;;14.05;10.15;;;;;;;39.94;27.62;93014.47;5049927;28;20222;-72
2023/07/19 06:23:06;;;;;;;12.57;8.43;;;;;;;41.61;25.04;93022.38;5051115;28;20186;-72
2023/07/19 06:25:31;;;;;;;9.93;8.80;;;;;;;43.46;23.02;93028.50;5050148;28;20241;-72
2023/07/19 06:27:57;;;;;;;14.63;9.23;;;;;;;41.18;25.41;93018.88;5050304;28;20304;-72
2023/07/19 06:30:22;;;;;;;12.23;8.68;;;;;;;41.19;25.07;93014.88;5046229;28;20225;-72
2023/07/19 06:32:48;;;;;;;16.40;8.45;;;;;;;41.33;25.22;93008.75;5050696;28;20210;-72
2023/07/19 06:35:13;;;;;;;9.70;8.82;;;;;;;40.16;27.04;93006.13;5050111;28;20233;-72
2023/07/19 06:37:38;;;;;;;9.43;8.63;;;;;;;41.35;25.13;93011.03;5050612;28;20792;-73
2023/07/19 06:40:05;;;;;;;11.50;9.05;;;;;;;42.97;23.12;93024.91;5050350;28;20225;-72
2023/07/19 06:42:32;;;;;;;11.23;8.85;;;;;;;40.86;25.01;93010.56;5050596;28;20872;-72
2023/07/19 06:44:58;;;;;;;8.52;7.82;;;;;;;42.61;23.09;93025.97;5051339;28;20236;-72
2023/07/19 06:47:24;;;;;;;10.20;9.25;;;;;;;41.28;24.00;93006.63;5050236;28;20229;-72
2023/07/19 06:49:49;;;;;;;10.98;9.98;;;;;;;36.74;30.07;92994.09;5057275;28;20924;-72
2023/07/19 06:52:14;;;;;;;15.38;9.70;;;;;;;33.26;36.72;92982.84;5082729;28;20185;-72
2023/07/19 06:54:40;;;;;;;11.18;9.90;;;;;;;30.21;44.12;92974.97;5049884;28;20237;-72
2023/07/19 06:57:06;;;;;;;10.27;9.15;;;;;;;30.55;43.26;92954.41;5050171;28;20170;-72
2023/07/19 06:59:31;;;;;;;11.52;10.23;;;;;;;30.34;44.24;92978.75;5049606;28;20192;-71
2023/07/19 07:01:57;;;;;;;14.85;9.75;;;;;;;29.21;49.27;92968.25;5050026;28;20253;-72
2023/07/19 07:04:24;;;;;;;22.70;11.35;;;;;;;28.70;50.49;92973.16;5048926;28;20253;-71
2023/07/19 07:06:49;;;;;;;13.43;11.20;;;;;;;27.99;52.87;92971.41;5050083;28;20240;-71
2023/07/19 07:09:15;;;;;;;14.25;11.13;;;;;;;28.55;53.36;92971.63;5050302;28;20178;-72
2023/07/19 07:11:42;;;;;;;12.88;11.65;;;;;;;29.13;49.17;92963.25;5049330;28;20245;-72
2023/07/19 07:14:08;;;;;;;13.57;12.07;;;;;;;28.16;52.49;92965.34;5049256;28;20185;-71
2023/07/19 07:16:34;;;;;;;15.55;10.45;;;;;;;28.84;50.21;92970.50;5035778;28;20234;-71
2023/07/19 07:18:59;;;;;;;12.13;10.43;;;;;;;28.33;51.54;92969.25;5029932;28;20188;-71
2023/07/19 07:21:26;;;;;;;11.65;10.55;;;;;;;28.42;53.09;92973.09;5029909;28;20215;-71
2023/07/19 07:23:51;;;;;;;14.55;11.20;;;;;;;28.39;53.38;92968.47;5029433;28;20244;-71
2023/07/19 07:26:17;;;;;;;11.50;10.30;;;;;;;28.75;50.95;92970.09;5039464;28;20237;-71
2023/07/19 07:28:42;;;;;;;12.05;10.90;;;;;;;28.66;52.24;92963.56;5045186;28;20194;-71
2023/07/19 07:31:08;;;;;;;16.23;11.30;;;;;;;28.66;52.05;92961.66;5049984;28;20230;-72
2023/07/19 07:33:35;;;;;;;14.20;12.07;;;;;;;28.86;50.84;92970.88;5049724;28;20194;-71
2023/07/19 07:36:00;;;;;;;15.27;10.68;;;;;;;28.85;51.81;92969.34;5034795;28;21020;-71
2023/07/19 07:38:26;;;;;;;13.13;11.40;;;;;;;28.42;53.49;92962.34;5030126;28;20191;-71
2023/07/19 07:40:51;;;;;;;16.83;11.40;;;;;;;28.49;52.22;92965.06;5029544;28;20228;-72
2023/07/19 07:43:16;;;;;;;13.00;10.65;;;;;;;28.86;51.24;92960.13;5029945;28;20221;-71
2023/07/19 07:45:42;;;;;;;13.40;12.13;;;;;;;28.56;51.42;92956.28;5032310;28;20226;-71
2023/07/19 07:48:07;;;;;;;13.13;11.82;;;;;;;28.60;52.00;92951.66;5034129;28;20202;-71
2023/07/19 07:50:32;;;;;;;13.90;11.32;;;;;;;28.76;51.45;92950.16;5029634;28;20213;-71
2023/07/19 07:52:58;;;;;;;19.17;11.82;;;;;;;28.96;50.89;92948.63;5033655;28;20195;-71
2023/07/19 07:55:23;;;;;;;15.93;11.75;;;;;;;28.76;50.15;92944.00;5033178;28;20699;-71
2023/07/19 07:57:49;;;;;;;15.63;12.13;;;;;;;28.56;51.42;92940.94;5033691;28;20282;-72
2023/07/19 08:00:17;;;;;;;16.48;11.52;;;;;;;28.73;51.15;92934.03;5039517;28;20229;-71
2023/07/19 08:02:42;;;;;;;13.45;11.70;;;;;;;28.88;50.54;92936.34;5056015;28;20202;-71
2023/07/19 08:05:09;;;;;;;12.57;11.00;;;;;;;28.82;49.95;92927.13;5059994;28;20337;-71
2023/07/19 08:07:34;;;;;;;19.48;11.77;;;;;;;28.91;50.56;92924.81;5052940;28;20221;-72
2023/07/19 08:10:00;;;;;;;13.70;11.07;;;;;;;28.87;50.33;92931.34;5052409;28;20236;-71
2023/07/19 08:12:25;;;;;;;13.57;11.35;;;;;;;28.74;51.96;92925.56;5053209;28;20202;-72
2023/07/19 08:14:51;;;;;;;14.77;11.25;;;;;;;29.23;49.97;92928.25;5052800;28;20267;-71
2023/07/19 08:17:16;;;;;;;12.43;11.18;;;;;;;29.12;50.46;92930.19;5053393;28;20177;-71
2023/07/19 08:19:41;;;;;;;12.75;11.30;;;;;;;29.40;48.99;92919.38;5058107;28;20319;-72
2023/07/19 08:22:22;;;;;;;13.07;11.75;;;;;;;28.42;50.75;92919.38;5052684;28;20193;-71
2023/07/19 08:24:47;;;;;;;14.68;11.00;;;;;;;28.47;51.00;92910.94;5052379;28;20259;-71
2023/07/19 08:27:13;;;;;;;14.30;11.10;;;;;;;28.43;50.95;92926.28;5052554;28;20211;-71
2023/07/19 08:29:39;;;;;;;14.68;12.07;;;;;;;28.91;48.98;92927.50;5052609;28;20181;-72
2023/07/19 08:32:04;;;;;;;12.27;10.93;;;;;;;29.34;48.12;92915.56;5058755;28;20204;-71
2023/07/19 08:34:30;;;;;;;11.98;10.85;;;;;;;29.18;48.38;92933.28;5052645;28;20229;-71
2023/07/19 08:36:55;;;;;;;12.13;11.02;;;;;;;29.09;48.25;92930.22;5052522;28;20183;-71
2023/07/19 08:39:20;;;;;;;11.10;10.10;;;;;;;29.31;48.32;92921.72;5053050;28;20249;-71
2023/07/19 08:41:46;;;;;;;13.35;12.05;;;;;;;29.52;48.19;92927.06;5052383;28;20185;-71
2023/07/19 08:44:11;;;;;;;14.73;10.98;;;;;;;29.58;46.77;92925.50;5052223;28;20198;-71
2023/07/19 08:46:38;;;;;;;13.80;10.88;;;;;;;29.84;46.54;92935.06;5051858;28;20244;-72
2023/07/19 08:49:03;;;;;;;11.95;10.75;;;;;;;29.94;44.91;92931.56;5052915;28;20193;-71
2023/07/19 08:51:31;;;;;;;12.23;10.95;;;;;;;29.54;46.08;92913.22;5051946;28;20222;-71
2023/07/19 08:53:56;;;;;;;11.95;10.82;;;;;;;29.51;47.35;92919.38;5051782;28;20212;-71
2023/07/19 08:56:22;;;;;;;13.07;11.75;;;;;;;29.82;46.95;92912.38;5051692;28;20263;-71
2023/07/19 08:58:48;;;;;;;11.82;10.82;;;;;;;30.12;46.54;92918.03;5053926;28;20186;-71
2023/07/19 09:01:14;;;;;;;13.90;11.70;;;;;;;30.12;48.09;92893.78;5051710;28;20235;-71
2023/07/19 09:03:39;;;;;;;15.95;12.38;;;;;;;30.08;45.66;92903.81;5051021;28;20182;-71
2023/07/19 09:06:04;;;;;;;13.60;12.20;;;;;;;30.09;45.06;92889.94;5051557;28;20227;-72
2023/07/19 09:08:40;;;;;;;12.82;11.63;;;;;;;30.20;43.98;92879.09;5052368;28;20194;-71
2023/07/19 09:11:07;;;;;;;12.25;11.05;;;;;;;29.87;47.21;92885.06;5051891;28;20244;-71
2023/07/19 09:13:36;;;;;;;16.25;12.27;;;;;;;30.10;46.42;92885.34;5051698;28;20213;-72
2023/07/19 09:16:03;;;;;;;12.05;10.00;;;;;;;30.44;47.60;92891.69;5051646;28;20230;-72
2023/07/19 09:18:34;;;;;;;12.63;11.38;;;;;;;30.29;46.83;92893.72;5052434;28;20188;-71
2023/07/19 09:20:59;;;;;;;17.30;11.82;;;;;;;30.54;44.77;92888.19;5051602;28;20217;-72
2023/07/19 09:23:25;;;;;;;12.65;11.40;;;;;;;30.41;45.29;92884.41;5048470;28;20217;-71
2023/07/19 09:25:54;;;;;;;12.57;11.38;;;;;;;30.42;47.05;92894.00;5057720;28;20224;-71
2023/07/19 09:28:24;;;;;;;12.98;11.75;;;;;;;30.59;45.39;92882.34;5056082;28;20212;-72
2023/07/19 09:30:59;;;;;;;13.55;12.00;;;;;;;30.56;44.58;92888.53;5050720;28;20218;-71
2023/07/19 09:33:27;;;;;;;13.15;11.40;;;;;;;30.32;44.55;92884.09;5051808;28;20199;-71
2023/07/19 09:35:57;;;;;;;12.77;11.60;;;;;;;30.19;46.23;92877.59;5051133;28;20228;-71
2023/07/19 09:38:23;;;;;;;13.02;11.40;;;;;;;29.50;45.88;92880.16;5051391;28;20828;-72
2023/07/19 09:40:53;;;;;;;12.80;11.50;;;;;;;29.81;44.93;92878.56;5051482;28;20217;-72
2023/07/19 09:43:20;;;;;;;14.85;11.70;;;;;;;30.23;43.97;92879.13;5054816;28;20202;-71
2023/07/19 09:45:48;;;;;;;12.43;11.32;;;;;;;30.44;43.72;92884.41;5051024;28;20300;-71
2023/07/19 09:48:17;;;;;;;13.73;11.65;;;;;;;30.27;42.96;92885.28;5051182;28;20193;-71
2023/07/19 09:50:43;;;;;;;12.85;11.55;;;;;;;30.32;42.84;92876.00;5050744;28;20252;-71
2023/07/19 09:53:12;;;;;;;12.35;10.90;;;;;;;30.75;40.78;92872.63;5050803;28;20192;-72
2023/07/19 09:55:38;;;;;;;15.35;11.10;;;;;;;30.40;43.63;92875.53;5050806;28;20214;-71
2023/07/19 09:58:06;;;;;;;13.15;11.85;;;;;;;30.45;44.09;92868.97;5050537;28;20204;-71
2023/07/19 10:00:32;;;;;;;13.15;11.80;;;;;;;30.73;40.91;92863.38;5040713;28;20231;-72
2023/07/19 10:03:00;;;;;;;11.60;10.50;;;;;;;30.89;41.34;92877.16;5031056;28;20278;-71
2023/07/19 10:05:30;;;;;;;12.20;11.10;;;;;;;30.89;40.06;92867.13;5040053;28;20245;-71
2023/07/19 10:08:05;;;;;;;12.57;11.07;;;;;;;30.89;40.89;92850.16;5050741;28;20197;-71
2023/07/19 10:10:38;;;;;;;15.10;11.63;;;;;;;30.66;40.23;92847.25;5051133;28;20256;-71
2023/07/19 10:13:03;;;;;;;12.77;11.25;;;;;;;30.47;43.40;92853.19;5050286;28;20187;-72
2023/07/19 10:15:30;;;;;;;12.95;11.68;;;;;;;30.88;40.73;92848.66;5049351;28;20313;-71
2023/07/19 10:18:01;;;;;;;17.83;12.52;;;;;;;31.35;38.82;92850.50;5050206;28;20190;-72
2023/07/19 10:20:34;;;;;;;12.95;11.77;;;;;;;31.21;36.90;92845.22;5050140;28;20279;-71
2023/07/19 10:23:00;;;;;;;10.77;9.88;;;;;;;31.38;36.14;92844.31;5047442;28;20247;-71
2023/07/19 10:25:57;;;;;;;11.02;10.02;;;;;;;31.35;36.31;92850.50;5057921;28;20221;-72
2023/07/19 10:28:30;;;;;;;10.93;9.90;;;;;;;31.64;33.61;92843.66;5060065;28;20186;-71
2023/07/19 10:31:00;;;;;;;12.93;11.15;;;;;;;31.53;34.60;92845.69;5049514;28;20264;-71
2023/07/19 10:33:28;;;;;;;11.05;10.15;;;;;;;31.71;34.09;92840.84;5056634;28;20228;-71
2023/07/19 10:35:55;;;;;;;12.48;11.18;;;;;;;31.48;35.67;92835.34;5037344;28;20253;-71
2023/07/19 10:38:28;;;;;;;12.63;11.10;;;;;;;31.42;35.32;92819.97;5030504;28;20233;-70
2023/07/19 10:41:02;;;;;;;11.38;10.13;;;;;;;31.78;34.76;92835.38;5043534;28;20281;-71
2023/07/19 10:43:33;;;;;;;13.68;10.40;;;;;;;31.91;32.19;92835.63;5050235;28;20602;-71
2023/07/19 10:46:04;;;;;;;12.32;10.00;;;;;;;31.65;31.88;92833.59;5051085;28;20217;-71
2023/07/19 10:48:37;;;;;;;10.80;9.88;;;;;;;31.88;32.00;92826.38;5051674;28;21615;-72
2023/07/19 10:51:03;;;;;;;11.52;10.43;;;;;;;31.72;31.89;92830.81;5042486;28;20217;-72
2023/07/19 10:53:41;;;;;;;15.43;11.73;;;;;;;31.74;34.41;92829.22;5049706;28;20174;-71
2023/07/19 10:56:06;;;;;;;11.85;10.70;;;;;;;31.96;32.56;92830.53;5049466;28;20227;-72
2023/07/19 10:58:32;;;;;;;12.13;10.93;;;;;;;31.91;32.11;92839.06;5049764;28;20194;-71
2023/07/19 11:00:57;;;;;;;11.18;10.30;;;;;;;32.06;33.18;92826.91;5042305;28;20225;-72
2023/07/19 11:03:24;;;;;;;12.57;11.38;;;;;;;31.86;34.38;92822.56;5030709;28;20202;-71
2023/07/19 11:05:51;;;;;;;12.98;10.38;;;;;;;31.94;34.22;92822.06;5041778;28;20294;-71
2023/07/19 11:08:20;;;;;;;11.85;10.82;;;;;;;31.92;34.49;92829.03;5050202;28;20185;-71
2023/07/19 11:10:47;;;;;;;11.38;10.25;;;;;;;31.76;33.15;92810.69;5049969;28;20242;-72
2023/07/19 11:13:13;;;;;;;12.95;10.63;;;;;;;31.77;34.21;92823.00;5050548;28;20240;-72
2023/07/19 11:15:58;;;;;;;11.88;10.60;;;;;;;31.66;31.99;92824.34;5056032;28;20217;-71
2023/07/19 11:18:27;;;;;;;12.30;10.60;;;;;;;31.80;33.95;92818.75;5050229;28;20190;-71